createdAt,value
2019-05-07T00:00:37.891Z,5.25
2019-05-07T00:03:07.446Z,4.65
2019-05-07T00:05:36.992Z,5.60
2019-05-07T00:08:06.502Z,4.67
2019-05-07T00:10:36.390Z,5.03
2019-05-07T00:13:05.897Z,4.30
2019-05-07T00:15:35.457Z,4.50
2019-05-07T00:18:05.018Z,4.30
2019-05-07T00:20:34.606Z,4.70
2019-05-07T00:23:04.086Z,4.37
2019-05-07T00:25:33.697Z,4.72
2019-05-07T00:28:03.286Z,5.47
2019-05-07T00:30:33.322Z,4.85
2019-05-07T00:33:03.015Z,4.80
2019-05-07T02:30:30.099Z,6.40
2019-05-07T02:32:59.529Z,6.80
2019-05-07T02:35:29.368Z,6.20
2019-05-07T02:38:13.831Z,6.70
2019-05-07T02:40:46.668Z,7.70
2019-05-07T02:43:16.068Z,7.62
2019-05-07T02:46:21.474Z,7.90
2019-05-07T02:48:44.610Z,7.05
2019-05-07T02:51:23.805Z,7.00
2019-05-07T02:54:03.563Z,6.28
2019-05-07T02:56:33.326Z,6.67
2019-05-07T02:59:04.023Z,6.83
2019-05-07T03:01:33.969Z,5.95
2019-05-07T03:04:03.802Z,6.28
2019-05-07T03:06:34.108Z,6.28
2019-05-07T03:09:05.369Z,7.15
2019-05-07T03:11:34.785Z,7.45
2019-05-07T03:14:04.305Z,7.72
2019-05-07T03:16:43.193Z,6.92
2019-05-07T03:19:04.862Z,6.05
2019-05-07T03:21:53.785Z,6.65
2019-05-07T03:24:55.676Z,6.42
2019-05-07T03:27:25.121Z,7.37
2019-05-07T03:30:08.478Z,6.80
2019-05-07T03:32:46.779Z,6.95
2019-05-07T03:35:28.442Z,6.72
2019-05-07T03:37:58.046Z,6.30
2019-05-07T03:40:28.169Z,7.10
2019-05-07T03:43:01.498Z,6.37
2019-05-07T03:45:43.198Z,5.92
2019-05-07T03:48:17.189Z,6.35
2019-05-07T03:50:46.605Z,7.20
2019-05-07T03:53:16.005Z,9.40
2019-05-07T03:55:45.403Z,8.20
2019-05-07T03:58:15.017Z,7.80
2019-05-07T04:00:45.236Z,7.72
2019-05-07T04:03:18.935Z,8.08
2019-05-07T04:05:45.782Z,8.95
2019-05-07T04:08:15.265Z,8.03
2019-05-07T04:10:46.161Z,8.18
2019-05-07T04:13:15.576Z,8.80
2019-05-07T04:15:45.001Z,9.58
2019-05-07T04:18:14.456Z,8.08
2019-05-07T04:20:44.053Z,7.92
2019-05-07T04:23:14.122Z,9.33
2019-05-07T04:25:58.711Z,8.75
2019-05-07T04:28:34.776Z,7.90
2019-05-07T04:31:04.301Z,8.58
2019-05-07T04:33:37.868Z,8.40
2019-05-07T04:36:14.813Z,8.45
2019-05-07T04:38:44.335Z,7.90
2019-05-07T04:41:14.122Z,7.17
2019-05-07T04:43:44.687Z,7.20
2019-05-07T04:46:14.540Z,7.95
2019-05-07T04:48:44.501Z,7.95
2019-05-07T04:51:16.032Z,7.72
2019-05-07T04:53:45.454Z,8.18
2019-05-07T04:56:15.257Z,8.55
2019-05-07T04:58:44.645Z,8.65
2019-05-07T05:01:16.076Z,8.45
2019-05-07T05:03:45.509Z,7.53
2019-05-07T05:06:15.210Z,7.80
2019-05-07T05:08:44.601Z,8.75
2019-05-07T05:11:14.434Z,7.00
2019-05-07T05:13:44.632Z,6.20
2019-05-07T05:16:24.249Z,6.40
2019-05-07T05:18:54.407Z,7.25
2019-05-07T05:21:32.637Z,5.90
2019-05-07T05:24:06.341Z,6.25
2019-05-07T05:26:35.745Z,6.40
2019-05-07T05:29:05.270Z,6.15
2019-05-07T05:31:34.696Z,5.55
2019-05-07T05:34:04.198Z,5.40
2019-05-07T05:36:33.641Z,5.65
2019-05-07T05:39:03.037Z,5.53
2019-05-07T05:41:34.020Z,5.67
2019-05-07T05:44:08.436Z,5.70
2019-05-07T05:46:37.874Z,6.60
2019-05-07T05:49:07.273Z,5.50
2019-05-07T05:51:55.615Z,5.80
2019-05-07T05:54:32.921Z,5.70
2019-05-07T05:57:39.857Z,6.97
2019-05-07T06:00:47.585Z,7.10
2019-05-07T06:03:45.351Z,6.55
2019-05-07T06:06:36.479Z,6.37
2019-05-07T06:09:18.646Z,6.33
2019-05-07T06:12:06.993Z,7.60
2019-05-07T06:14:49.175Z,6.90
2019-05-07T06:17:35.077Z,7.92
2019-05-07T06:20:22.596Z,7.40
2019-05-07T06:23:09.740Z,8.75
2019-05-07T06:25:39.580Z,8.23
2019-05-07T06:28:09.011Z,12.18
2019-05-07T06:30:38.440Z,8.90
2019-05-07T06:33:07.849Z,8.75
2019-05-07T06:35:37.251Z,8.40
2019-05-07T06:38:08.284Z,8.55
2019-05-07T06:40:53.225Z,9.38
2019-05-07T06:43:42.041Z,9.23
2019-05-07T06:46:12.568Z,8.35
2019-05-07T06:48:45.769Z,11.90
2019-05-07T06:51:13.145Z,11.00
2019-05-07T06:53:42.548Z,9.60
2019-05-07T06:56:12.303Z,8.95
2019-05-07T06:58:49.558Z,8.70
2019-05-07T07:01:37.370Z,9.43
2019-05-07T07:04:24.557Z,9.80
2019-05-07T07:07:27.571Z,11.18
2019-05-07T07:10:09.404Z,9.73
2019-05-07T07:12:38.837Z,12.15
2019-05-07T07:15:08.705Z,9.25
2019-05-07T07:17:38.408Z,8.73
2019-05-07T07:20:08.095Z,9.68
2019-05-07T07:22:37.525Z,10.43
2019-05-07T07:25:07.477Z,9.08
2019-05-07T07:27:36.882Z,9.28
2019-05-07T07:30:24.568Z,9.55
2019-05-07T07:32:54.202Z,19.20
2019-05-07T07:35:23.677Z,10.10
2019-05-07T07:37:53.517Z,13.88
2019-05-07T07:40:32.712Z,12.35
2019-05-07T07:43:06.469Z,11.83
2019-05-07T07:45:34.549Z,9.78
2019-05-07T07:48:04.371Z,10.20
2019-05-07T07:50:34.189Z,14.23
2019-05-07T07:53:03.619Z,9.15
2019-05-07T07:55:44.522Z,10.98
2019-05-07T07:58:25.638Z,13.70
2019-05-07T08:01:03.991Z,13.25
2019-05-07T08:03:33.698Z,14.43
2019-05-07T08:06:03.180Z,12.30
2019-05-07T08:08:32.619Z,11.90
2019-05-07T08:11:02.461Z,10.90
2019-05-07T08:13:32.656Z,11.48
2019-05-07T08:16:02.536Z,11.45
2019-05-07T08:18:32.759Z,11.35
2019-05-07T08:21:02.597Z,10.80
2019-05-07T08:23:32.125Z,12.43
2019-05-07T08:26:02.518Z,12.28
2019-05-07T08:28:32.131Z,12.55
2019-05-07T08:31:16.768Z,12.20
2019-05-07T08:33:52.518Z,11.48
2019-05-07T08:36:22.607Z,12.47
2019-05-07T08:38:56.146Z,11.50
2019-05-07T08:41:27.346Z,12.23
2019-05-07T08:44:11.801Z,11.65
2019-05-07T08:47:02.800Z,13.48
2019-05-07T08:49:38.920Z,12.50
2019-05-07T08:52:03.922Z,12.45
2019-05-07T08:54:33.865Z,12.30
2019-05-07T08:57:03.409Z,13.28
2019-05-07T08:59:33.968Z,11.78
2019-05-07T09:02:04.027Z,12.15
2019-05-07T09:04:33.549Z,13.55
2019-05-07T09:07:03.129Z,13.62
2019-05-07T09:09:32.784Z,14.33
2019-05-07T09:12:03.105Z,13.20
2019-05-07T09:14:32.634Z,12.60
2019-05-07T09:17:02.735Z,13.10
2019-05-07T09:19:46.922Z,12.90
2019-05-07T09:22:04.792Z,13.00
2019-05-07T09:24:34.194Z,14.70
2019-05-07T09:27:29.314Z,15.85
2019-05-07T09:30:17.659Z,16.10
2019-05-07T09:32:56.719Z,15.55
2019-05-07T09:35:32.070Z,15.08
2019-05-07T09:38:03.146Z,14.55
2019-05-07T09:40:32.749Z,15.40
2019-05-07T09:43:02.599Z,17.48
2019-05-07T09:45:32.906Z,17.12
2019-05-07T09:48:02.996Z,16.87
2019-05-07T09:50:32.705Z,17.52
2019-05-07T09:53:02.470Z,16.42
2019-05-07T09:55:32.524Z,18.57
2019-05-07T09:58:02.335Z,19.73
2019-05-07T10:00:33.206Z,18.12
2019-05-07T10:03:02.854Z,17.35
2019-05-07T10:05:32.323Z,17.48
2019-05-07T10:08:01.962Z,17.70
2019-05-07T10:10:32.902Z,17.27
2019-05-07T10:13:12.216Z,19.00
2019-05-07T10:15:41.871Z,17.32
2019-05-07T10:18:15.713Z,18.98
2019-05-07T10:20:46.336Z,17.30
2019-05-07T10:23:23.003Z,21.42
2019-05-07T10:25:56.341Z,18.73
2019-05-07T10:28:25.815Z,17.98
2019-05-07T10:30:55.690Z,18.15
2019-05-07T10:33:25.645Z,19.98
2019-05-07T10:35:55.066Z,18.15
2019-05-07T10:38:24.641Z,19.40
2019-05-07T10:40:54.107Z,18.07
2019-05-07T10:43:23.570Z,19.30
2019-05-07T10:46:27.714Z,18.98
2019-05-07T10:49:02.598Z,19.75
2019-05-07T10:51:32.264Z,19.50
2019-05-07T10:54:02.329Z,19.27
2019-05-07T10:56:32.624Z,19.98
2019-05-07T10:59:02.875Z,19.32
2019-05-07T11:01:38.893Z,18.55
2019-05-07T11:04:08.426Z,17.87
2019-05-07T11:06:38.194Z,20.65
2019-05-07T11:09:08.852Z,17.75
2019-05-07T11:11:38.293Z,19.27
2019-05-07T11:14:08.062Z,19.45
2019-05-07T11:16:46.874Z,18.62
2019-05-07T11:19:18.934Z,20.15
2019-05-07T11:21:47.728Z,19.87
2019-05-07T11:24:17.173Z,21.05
2019-05-07T11:26:46.614Z,21.25
2019-05-07T11:29:16.162Z,22.48
2019-05-07T11:31:45.604Z,22.25
2019-05-07T11:34:15.110Z,21.82
2019-05-07T11:36:45.282Z,22.90
2019-05-07T11:39:15.105Z,24.25
2019-05-07T11:42:02.413Z,23.65
2019-05-07T11:44:32.181Z,22.82
2019-05-07T11:47:22.468Z,23.15
2019-05-07T11:50:11.990Z,24.00
2019-05-07T11:52:44.956Z,24.40
2019-05-07T11:55:14.515Z,23.70
2019-05-07T11:57:44.420Z,22.42
2019-05-07T12:00:24.737Z,23.38
2019-05-07T12:02:54.164Z,23.00
2019-05-07T12:05:24.394Z,23.75
2019-05-07T12:07:53.802Z,26.07
2019-05-07T12:10:23.597Z,24.60
2019-05-07T12:12:53.028Z,23.85
2019-05-07T12:15:22.481Z,26.07
2019-05-07T12:17:52.272Z,25.48
2019-05-07T12:20:21.940Z,26.33
2019-05-07T12:22:52.162Z,24.32
2019-05-07T12:25:22.004Z,25.95
2019-05-07T12:27:52.853Z,28.77
2019-05-07T12:30:55.548Z,26.48
2019-05-07T12:33:42.862Z,24.77
2019-05-07T12:36:13.596Z,26.97
2019-05-07T12:38:43.558Z,28.35
2019-05-07T12:41:33.921Z,29.25
2019-05-07T12:44:06.253Z,29.30
2019-05-07T12:46:36.928Z,27.87
2019-05-07T12:49:06.997Z,24.75
2019-05-07T12:51:58.513Z,25.77
2019-05-07T12:54:47.014Z,28.27
2019-05-07T12:57:16.757Z,25.82
2019-05-07T12:59:46.212Z,25.08
2019-05-07T13:02:44.096Z,27.15
2019-05-07T13:05:12.069Z,28.15
2019-05-07T13:07:54.945Z,27.73
2019-05-07T13:10:24.381Z,28.05
2019-05-07T13:12:54.243Z,27.75
2019-05-07T13:15:27.574Z,27.20
2019-05-07T13:17:54.819Z,25.00
2019-05-07T13:20:24.547Z,26.40
2019-05-07T13:22:53.979Z,25.72
2019-05-07T13:25:28.274Z,23.92
2019-05-07T13:27:56.330Z,24.40
2019-05-07T13:30:26.002Z,25.65
2019-05-07T13:32:57.045Z,25.70
2019-05-07T13:35:26.961Z,26.00
2019-05-07T13:38:14.796Z,23.77
2019-05-07T13:41:02.203Z,24.30
2019-05-07T13:43:36.782Z,22.32
2019-05-07T13:46:09.084Z,22.27
2019-05-07T13:48:42.429Z,23.20
2019-05-07T13:51:12.297Z,24.45
2019-05-07T13:53:42.807Z,21.77
2019-05-07T13:56:12.936Z,24.05
2019-05-07T13:58:42.873Z,24.98
2019-05-07T14:01:23.110Z,21.02
2019-05-07T14:03:52.525Z,19.65
2019-05-07T14:06:43.033Z,19.07
2019-05-07T14:09:24.207Z,18.12
2019-05-07T14:11:53.179Z,17.35
2019-05-07T14:14:22.822Z,16.45
2019-05-07T14:16:53.088Z,15.70
2019-05-07T14:19:22.784Z,17.35
2019-05-07T14:21:52.676Z,16.17
2019-05-07T14:24:22.581Z,14.80
2019-05-07T14:26:53.135Z,16.37
2019-05-07T14:29:24.845Z,15.00
2019-05-07T14:32:04.207Z,16.20
2019-05-07T14:34:38.089Z,15.35
2019-05-07T14:37:32.492Z,15.23
2019-05-07T14:40:02.693Z,14.85
2019-05-07T14:42:41.948Z,13.65
2019-05-07T14:45:11.529Z,14.93
2019-05-07T14:47:44.389Z,13.70
2019-05-07T14:50:13.319Z,13.95
2019-05-07T14:52:43.431Z,14.00
2019-05-07T14:55:13.370Z,14.25
2019-05-07T14:57:43.410Z,13.50
2019-05-07T15:00:13.533Z,15.28
2019-05-07T15:02:43.016Z,13.32
2019-05-07T15:05:12.692Z,12.58
2019-05-07T15:07:45.085Z,13.68
2019-05-07T15:10:15.232Z,13.08
2019-05-07T15:12:44.713Z,12.53
2019-05-07T15:15:14.758Z,11.38
2019-05-07T15:17:53.271Z,10.63
2019-05-07T15:20:22.859Z,10.63
2019-05-07T15:23:06.619Z,11.48
2019-05-07T15:25:36.037Z,11.40
2019-05-07T15:28:06.552Z,10.18
2019-05-07T15:30:46.380Z,12.25
2019-05-07T15:33:15.829Z,11.95
2019-05-07T15:35:45.558Z,12.10
2019-05-07T15:38:15.007Z,10.72
2019-05-07T15:40:44.608Z,10.03
2019-05-07T15:43:14.223Z,9.85
2019-05-07T15:45:43.766Z,8.48
2019-05-07T15:48:13.237Z,9.65
2019-05-07T15:50:42.984Z,10.60
2019-05-07T15:53:21.920Z,8.58
2019-05-07T15:55:52.274Z,11.05
2019-05-07T15:58:22.768Z,9.10
2019-05-07T16:00:52.215Z,8.68
2019-05-07T16:03:32.130Z,7.95
2019-05-07T16:06:03.744Z,10.72
2019-05-07T16:08:36.095Z,8.88
2019-05-07T16:11:05.546Z,8.55
2019-05-07T16:13:37.132Z,7.78
2019-05-07T16:16:06.539Z,8.80
2019-05-07T16:18:42.171Z,7.87
2019-05-07T16:21:12.106Z,9.20
2019-05-07T16:23:41.958Z,7.80
2019-05-07T16:26:12.919Z,7.40
2019-05-07T16:28:42.465Z,7.17
2019-05-07T16:31:11.921Z,6.50
2019-05-07T16:33:43.058Z,6.53
2019-05-07T16:36:12.662Z,5.60
2019-05-07T16:38:42.745Z,7.20
2019-05-07T16:41:13.553Z,6.95
2019-05-07T16:43:43.132Z,6.40
2019-05-07T16:46:12.643Z,7.00
2019-05-07T16:48:43.848Z,8.00
2019-05-07T16:51:13.181Z,10.00
2019-05-07T16:53:42.635Z,10.98
2019-05-07T16:56:12.663Z,8.08
2019-05-07T16:58:52.879Z,7.35
2019-05-07T17:01:24.653Z,7.30
2019-05-07T17:03:57.104Z,6.80
2019-05-07T17:06:26.577Z,6.85
2019-05-07T17:09:05.599Z,7.15
2019-05-07T17:11:35.039Z,7.10
2019-05-07T17:14:04.504Z,7.05
2019-05-07T17:16:34.384Z,6.40
2019-05-07T17:19:03.974Z,5.60
2019-05-07T17:21:33.453Z,5.20
2019-05-07T17:24:02.922Z,4.45
2019-05-07T17:26:32.766Z,4.87
2019-05-07T17:29:02.678Z,6.85
2019-05-07T17:31:32.194Z,7.28
2019-05-07T17:34:02.291Z,5.75
2019-05-07T17:36:33.011Z,5.67
2019-05-07T17:39:02.986Z,5.50
2019-05-07T17:41:32.515Z,5.95
2019-05-07T17:44:02.839Z,4.70
2019-05-07T17:46:33.438Z,5.17
2019-05-07T17:49:03.922Z,5.37
2019-05-07T17:51:46.624Z,8.85
2019-05-07T17:54:16.037Z,10.18
2019-05-07T17:56:45.464Z,12.00
2019-05-07T17:59:14.887Z,14.20
2019-05-07T18:02:02.567Z,13.38
2019-05-07T18:04:47.704Z,13.98
2019-05-07T18:07:05.396Z,14.03
2019-05-07T18:09:35.154Z,14.68
2019-05-07T18:12:04.624Z,13.93
2019-05-07T18:14:34.080Z,16.32
2019-05-07T18:17:09.424Z,13.83
2019-05-07T18:19:38.874Z,15.63
2019-05-07T18:22:08.972Z,18.92
2019-05-07T18:24:38.384Z,19.60
2019-05-07T18:27:09.740Z,20.30
2019-05-07T18:29:58.462Z,21.73
2019-05-07T18:32:39.385Z,22.70
2019-05-07T18:35:08.914Z,22.27
2019-05-07T18:37:42.479Z,22.52
2019-05-07T18:40:12.714Z,24.87
2019-05-07T18:42:42.696Z,25.55
2019-05-07T18:45:12.633Z,25.20
2019-05-07T18:47:43.419Z,25.75
2019-05-07T18:50:14.030Z,25.97
2019-05-07T18:52:44.042Z,25.23
2019-05-07T18:55:13.653Z,27.30
2019-05-07T18:57:43.104Z,26.80
2019-05-07T19:00:19.042Z,28.35
2019-05-07T19:02:49.121Z,28.50
2019-05-07T19:05:22.284Z,27.90
2019-05-07T19:08:04.351Z,28.73
2019-05-07T19:10:33.113Z,27.95
2019-05-07T19:13:06.258Z,26.33
2019-05-07T19:15:37.784Z,27.42
2019-05-07T19:18:12.062Z,28.50
2019-05-07T19:20:42.441Z,28.40
2019-05-07T19:23:12.561Z,28.15
2019-05-07T19:25:44.048Z,30.12
2019-05-07T19:28:15.000Z,30.55
2019-05-07T19:30:44.554Z,30.97
2019-05-07T19:33:15.525Z,29.40
2019-05-07T19:35:48.296Z,30.02
2019-05-07T19:38:19.443Z,30.77
2019-05-07T19:40:49.347Z,29.27
2019-05-07T19:43:21.433Z,29.57
2019-05-07T19:45:53.523Z,29.15
2019-05-07T19:48:23.309Z,30.17
2019-05-07T19:50:53.326Z,31.00
2019-05-07T19:53:23.444Z,29.72
2019-05-07T19:56:16.605Z,29.45
2019-05-07T19:58:48.549Z,29.55
2019-05-07T20:01:22.824Z,28.07
2019-05-07T20:03:52.974Z,29.23
2019-05-07T20:06:23.434Z,29.40
2019-05-07T20:08:53.130Z,30.35
2019-05-07T20:11:32.073Z,30.72
2019-05-07T20:14:02.125Z,28.38
2019-05-07T20:16:32.926Z,30.35
2019-05-07T20:19:02.600Z,29.50
2019-05-07T20:21:32.674Z,29.00
2019-05-07T20:24:02.353Z,27.07
2019-05-07T20:26:32.736Z,28.60
2019-05-07T20:29:03.156Z,28.07
2019-05-07T20:31:33.626Z,30.17
2019-05-07T20:34:03.211Z,28.60
2019-05-07T20:36:32.909Z,29.07
2019-05-07T20:39:02.499Z,28.30
2019-05-07T20:41:32.989Z,26.17
2019-05-07T20:44:03.030Z,28.42
2019-05-07T20:46:32.917Z,26.27
2019-05-07T20:49:02.994Z,28.75
2019-05-07T20:51:32.755Z,27.30
2019-05-07T20:54:26.985Z,29.35
2019-05-07T20:57:02.242Z,27.40
2019-05-07T20:59:32.743Z,27.05
2019-05-07T21:02:02.489Z,26.57
2019-05-07T21:04:33.033Z,27.67
2019-05-07T21:07:03.072Z,25.72
2019-05-07T21:09:32.974Z,25.75
2019-05-07T21:12:02.569Z,26.77
2019-05-07T21:14:32.583Z,26.85
2019-05-07T21:17:02.143Z,27.27
2019-05-07T21:19:33.121Z,27.60
2019-05-07T21:22:03.505Z,26.50
2019-05-07T21:24:33.174Z,25.12
2019-05-07T21:27:02.781Z,25.57
2019-05-07T21:29:32.761Z,24.80
2019-05-07T21:32:03.268Z,24.57
2019-05-07T21:34:32.998Z,25.75
2019-05-07T21:37:03.282Z,25.82
2019-05-07T21:39:33.123Z,26.30
2019-05-07T21:42:02.713Z,24.90
2019-05-07T21:44:32.639Z,23.83
2019-05-07T21:47:03.866Z,24.12
2019-05-07T21:49:33.477Z,25.85
2019-05-07T21:52:02.907Z,25.97
2019-05-07T21:54:54.523Z,25.40
2019-05-07T21:57:37.731Z,24.63
2019-05-07T22:00:22.061Z,25.10
2019-05-07T22:02:52.602Z,24.75
2019-05-07T22:05:22.674Z,23.60
2019-05-07T22:07:54.197Z,24.57
2019-05-07T22:10:23.154Z,25.05
2019-05-07T22:12:54.665Z,25.92
2019-05-07T22:15:23.686Z,26.50
2019-05-07T22:17:53.139Z,25.40
2019-05-07T22:20:22.586Z,26.33
2019-05-07T22:22:52.179Z,26.37
2019-05-07T22:25:22.201Z,25.25
2019-05-07T22:27:52.975Z,25.95
2019-05-07T22:30:28.849Z,25.15
2019-05-07T22:33:09.398Z,27.22
2019-05-07T22:35:41.063Z,25.80
2019-05-07T22:38:12.206Z,25.62
2019-05-07T22:40:43.380Z,25.70
2019-05-07T22:43:13.068Z,24.90
2019-05-07T22:45:42.870Z,25.88
2019-05-07T22:48:12.333Z,24.23
2019-05-07T22:50:42.362Z,23.55
2019-05-07T22:53:12.913Z,23.95
2019-05-07T22:55:42.342Z,24.60
2019-05-07T22:58:23.996Z,25.15
2019-05-07T23:01:02.455Z,24.70
2019-05-07T23:03:32.280Z,23.65
2019-05-07T23:06:07.651Z,22.93
2019-05-07T23:08:42.403Z,24.02
2019-05-07T23:11:12.481Z,23.42
2019-05-07T23:13:42.877Z,22.55
2019-05-07T23:16:12.759Z,22.37
2019-05-07T23:18:43.075Z,22.27
2019-05-07T23:21:12.596Z,23.90
2019-05-07T23:23:42.367Z,23.90
2019-05-07T23:26:14.634Z,22.80
2019-05-07T23:28:43.225Z,22.17
2019-05-07T23:31:12.628Z,21.50
2019-05-07T23:33:42.097Z,21.87
2019-05-07T23:36:12.957Z,21.45
2019-05-07T23:38:42.767Z,18.82
2019-05-07T23:41:29.985Z,22.20
2019-05-07T23:44:27.417Z,18.80
2019-05-07T23:46:56.848Z,17.80
2019-05-07T23:49:26.245Z,18.10
2019-05-07T23:51:56.016Z,18.32
2019-05-07T23:54:25.513Z,17.80
2019-05-07T23:57:06.110Z,18.32
2019-05-07T23:59:26.474Z,17.67
